sensor_id;sensor_type;location;lat;lon;timestamp;P1;durP1;ratioP1;P2;durP2;ratioP2
12412;SDS011;13877;18.896;-99.222;2023-05-18T00:01:14;14.57;;;9.50;;
12412;SDS011;13877;18.896;-99.222;2023-05-18T00:03:41;20.77;;;11.13;;
12412;SDS011;13877;18.896;-99.222;2023-05-18T00:06:08;25.83;;;12.13;;
12412;SDS011;13877;18.896;-99.222;2023-05-18T00:08:36;25.90;;;12.98;;
12412;SDS011;13877;18.896;-99.222;2023-05-18T00:11:03;32.15;;;13.60;;
12412;SDS011;13877;18.896;-99.222;2023-05-18T00:13:31;31.50;;;13.98;;
12412;SDS011;13877;18.896;-99.222;2023-05-18T00:15:58;24.83;;;12.98;;
12412;SDS011;13877;18.896;-99.222;2023-05-18T00:18:25;25.70;;;12.90;;
12412;SDS011;13877;18.896;-99.222;2023-05-18T00:20:52;32.70;;;13.88;;
12412;SDS011;13877;18.896;-99.222;2023-05-18T00:23:27;22.38;;;13.00;;
12412;SDS011;13877;18.896;-99.222;2023-05-18T00:25:56;29.98;;;13.23;;
12412;SDS011;13877;18.896;-99.222;2023-05-18T00:28:23;24.73;;;13.07;;
12412;SDS011;13877;18.896;-99.222;2023-05-18T00:30:52;23.05;;;12.73;;
12412;SDS011;13877;18.896;-99.222;2023-05-18T00:33:19;27.38;;;12.77;;
12412;SDS011;13877;18.896;-99.222;2023-05-18T00:35:47;38.35;;;14.60;;
12412;SDS011;13877;18.896;-99.222;2023-05-18T00:38:13;33.85;;;13.70;;
12412;SDS011;13877;18.896;-99.222;2023-05-18T00:40:41;25.60;;;13.25;;
12412;SDS011;13877;18.896;-99.222;2023-05-18T00:43:10;35.95;;;14.38;;
12412;SDS011;13877;18.896;-99.222;2023-05-18T00:45:37;30.23;;;13.65;;
12412;SDS011;13877;18.896;-99.222;2023-05-18T00:48:04;33.75;;;14.73;;
12412;SDS011;13877;18.896;-99.222;2023-05-18T00:50:31;24.92;;;14.05;;
12412;SDS011;13877;18.896;-99.222;2023-05-18T00:52:58;24.92;;;14.25;;
12412;SDS011;13877;18.896;-99.222;2023-05-18T00:55:25;26.65;;;13.45;;
12412;SDS011;13877;18.896;-99.222;2023-05-18T00:57:53;22.77;;;13.65;;
12412;SDS011;13877;18.896;-99.222;2023-05-18T01:00:21;26.27;;;13.57;;
12412;SDS011;13877;18.896;-99.222;2023-05-18T01:02:48;27.13;;;13.48;;
12412;SDS011;13877;18.896;-99.222;2023-05-18T01:05:16;31.50;;;13.77;;
12412;SDS011;13877;18.896;-99.222;2023-05-18T01:07:44;28.10;;;13.13;;
12412;SDS011;13877;18.896;-99.222;2023-05-18T01:10:13;29.17;;;13.80;;
12412;SDS011;13877;18.896;-99.222;2023-05-18T01:12:59;27.83;;;14.52;;
12412;SDS011;13877;18.896;-99.222;2023-05-18T01:15:41;26.08;;;14.70;;
12412;SDS011;13877;18.896;-99.222;2023-05-18T01:18:28;30.88;;;14.52;;
12412;SDS011;13877;18.896;-99.222;2023-05-18T01:26:23;37.72;;;15.32;;
12412;SDS011;13877;18.896;-99.222;2023-05-18T01:28:55;29.33;;;16.73;;
12412;SDS011;13877;18.896;-99.222;2023-05-18T01:31:24;34.28;;;17.17;;
12412;SDS011;13877;18.896;-99.222;2023-05-18T01:33:52;30.08;;;16.98;;
12412;SDS011;13877;18.896;-99.222;2023-05-18T01:36:19;33.88;;;16.35;;
12412;SDS011;13877;18.896;-99.222;2023-05-18T01:38:46;36.13;;;17.70;;
12412;SDS011;13877;18.896;-99.222;2023-05-18T01:43:55;35.70;;;15.30;;
12412;SDS011;13877;18.896;-99.222;2023-05-18T01:48:59;28.40;;;15.43;;
12412;SDS011;13877;18.896;-99.222;2023-05-18T01:51:32;33.25;;;15.48;;
12412;SDS011;13877;18.896;-99.222;2023-05-18T01:54:06;33.60;;;14.40;;
12412;SDS011;13877;18.896;-99.222;2023-05-18T01:56:36;33.33;;;13.73;;
12412;SDS011;13877;18.896;-99.222;2023-05-18T01:59:06;29.05;;;14.90;;
12412;SDS011;13877;18.896;-99.222;2023-05-18T02:01:33;27.02;;;14.27;;
12412;SDS011;13877;18.896;-99.222;2023-05-18T02:04:01;27.90;;;13.40;;
12412;SDS011;13877;18.896;-99.222;2023-05-18T02:06:29;19.35;;;10.48;;
12412;SDS011;13877;18.896;-99.222;2023-05-18T02:08:56;17.75;;;10.30;;
12412;SDS011;13877;18.896;-99.222;2023-05-18T02:11:23;30.33;;;13.30;;
12412;SDS011;13877;18.896;-99.222;2023-05-18T02:13:51;20.77;;;12.52;;
12412;SDS011;13877;18.896;-99.222;2023-05-18T02:16:18;35.65;;;15.10;;
12412;SDS011;13877;18.896;-99.222;2023-05-18T02:18:45;28.60;;;14.88;;
12412;SDS011;13877;18.896;-99.222;2023-05-18T02:21:13;26.50;;;13.32;;
12412;SDS011;13877;18.896;-99.222;2023-05-18T02:23:40;28.33;;;12.98;;
12412;SDS011;13877;18.896;-99.222;2023-05-18T02:26:07;23.63;;;13.30;;
12412;SDS011;13877;18.896;-99.222;2023-05-18T02:28:34;16.42;;;10.73;;
12412;SDS011;13877;18.896;-99.222;2023-05-18T02:31:05;21.00;;;10.73;;
12412;SDS011;13877;18.896;-99.222;2023-05-18T02:33:38;16.30;;;9.55;;
12412;SDS011;13877;18.896;-99.222;2023-05-18T02:36:12;21.48;;;11.15;;
12412;SDS011;13877;18.896;-99.222;2023-05-18T02:38:41;12.35;;;8.18;;
12412;SDS011;13877;18.896;-99.222;2023-05-18T02:41:10;15.65;;;7.93;;
12412;SDS011;13877;18.896;-99.222;2023-05-18T02:43:37;21.55;;;10.70;;
12412;SDS011;13877;18.896;-99.222;2023-05-18T02:46:05;24.02;;;11.65;;
12412;SDS011;13877;18.896;-99.222;2023-05-18T02:48:32;34.72;;;14.35;;
12412;SDS011;13877;18.896;-99.222;2023-05-18T02:50:59;27.27;;;13.80;;
12412;SDS011;13877;18.896;-99.222;2023-05-18T02:53:26;30.77;;;13.55;;
12412;SDS011;13877;18.896;-99.222;2023-05-18T02:55:59;37.25;;;14.85;;
12412;SDS011;13877;18.896;-99.222;2023-05-18T02:58:36;26.95;;;14.30;;
12412;SDS011;13877;18.896;-99.222;2023-05-18T03:01:12;23.75;;;13.00;;
12412;SDS011;13877;18.896;-99.222;2023-05-18T03:03:45;21.25;;;12.60;;
12412;SDS011;13877;18.896;-99.222;2023-05-18T03:06:13;28.25;;;12.07;;
12412;SDS011;13877;18.896;-99.222;2023-05-18T03:08:41;25.05;;;11.75;;
12412;SDS011;13877;18.896;-99.222;2023-05-18T03:11:10;21.35;;;12.07;;
12412;SDS011;13877;18.896;-99.222;2023-05-18T03:13:37;29.75;;;15.30;;
12412;SDS011;13877;18.896;-99.222;2023-05-18T03:16:04;37.78;;;14.85;;
12412;SDS011;13877;18.896;-99.222;2023-05-18T03:18:34;28.55;;;15.48;;
12412;SDS011;13877;18.896;-99.222;2023-05-18T03:21:01;34.63;;;15.95;;
12412;SDS011;13877;18.896;-99.222;2023-05-18T03:23:29;34.47;;;14.82;;
12412;SDS011;13877;18.896;-99.222;2023-05-18T03:25:56;23.45;;;13.60;;
12412;SDS011;13877;18.896;-99.222;2023-05-18T03:28:27;28.17;;;13.85;;
12412;SDS011;13877;18.896;-99.222;2023-05-18T03:30:54;27.92;;;12.15;;
12412;SDS011;13877;18.896;-99.222;2023-05-18T03:33:21;19.17;;;11.98;;
12412;SDS011;13877;18.896;-99.222;2023-05-18T03:35:49;22.13;;;11.30;;
12412;SDS011;13877;18.896;-99.222;2023-05-18T03:38:16;21.40;;;11.80;;
12412;SDS011;13877;18.896;-99.222;2023-05-18T03:40:49;22.80;;;11.75;;
12412;SDS011;13877;18.896;-99.222;2023-05-18T03:43:16;20.25;;;11.32;;
12412;SDS011;13877;18.896;-99.222;2023-05-18T03:45:45;23.88;;;11.10;;
12412;SDS011;13877;18.896;-99.222;2023-05-18T03:48:12;19.38;;;11.45;;
12412;SDS011;13877;18.896;-99.222;2023-05-18T03:50:39;19.77;;;10.63;;
12412;SDS011;13877;18.896;-99.222;2023-05-18T03:53:06;21.77;;;10.88;;
12412;SDS011;13877;18.896;-99.222;2023-05-18T03:55:34;21.73;;;10.27;;
12412;SDS011;13877;18.896;-99.222;2023-05-18T03:58:01;16.92;;;10.13;;
12412;SDS011;13877;18.896;-99.222;2023-05-18T04:00:28;19.25;;;10.05;;
12412;SDS011;13877;18.896;-99.222;2023-05-18T04:02:54;13.20;;;8.90;;
12412;SDS011;13877;18.896;-99.222;2023-05-18T04:05:23;19.35;;;10.63;;
12412;SDS011;13877;18.896;-99.222;2023-05-18T04:07:51;19.15;;;10.73;;
12412;SDS011;13877;18.896;-99.222;2023-05-18T04:10:17;20.13;;;10.77;;
12412;SDS011;13877;18.896;-99.222;2023-05-18T04:12:46;24.17;;;11.32;;
12412;SDS011;13877;18.896;-99.222;2023-05-18T04:15:12;20.45;;;11.50;;
12412;SDS011;13877;18.896;-99.222;2023-05-18T04:17:40;21.25;;;11.43;;
12412;SDS011;13877;18.896;-99.222;2023-05-18T04:20:11;23.52;;;10.48;;
12412;SDS011;13877;18.896;-99.222;2023-05-18T04:22:44;27.73;;;11.00;;
12412;SDS011;13877;18.896;-99.222;2023-05-18T04:25:13;27.63;;;11.02;;
12412;SDS011;13877;18.896;-99.222;2023-05-18T04:27:41;16.17;;;10.90;;
12412;SDS011;13877;18.896;-99.222;2023-05-18T04:30:10;19.13;;;11.85;;
12412;SDS011;13877;18.896;-99.222;2023-05-18T04:32:40;21.63;;;11.05;;
12412;SDS011;13877;18.896;-99.222;2023-05-18T04:35:08;20.05;;;11.95;;
12412;SDS011;13877;18.896;-99.222;2023-05-18T04:37:36;26.75;;;13.02;;
12412;SDS011;13877;18.896;-99.222;2023-05-18T04:40:11;29.52;;;12.15;;
12412;SDS011;13877;18.896;-99.222;2023-05-18T04:42:40;22.38;;;12.63;;
12412;SDS011;13877;18.896;-99.222;2023-05-18T04:45:16;32.10;;;15.15;;
12412;SDS011;13877;18.896;-99.222;2023-05-18T04:47:46;35.42;;;17.17;;
12412;SDS011;13877;18.896;-99.222;2023-05-18T04:50:18;26.65;;;14.27;;
12412;SDS011;13877;18.896;-99.222;2023-05-18T04:52:46;29.50;;;14.45;;
12412;SDS011;13877;18.896;-99.222;2023-05-18T04:55:16;27.30;;;12.95;;
12412;SDS011;13877;18.896;-99.222;2023-05-18T04:57:52;30.30;;;11.82;;
12412;SDS011;13877;18.896;-99.222;2023-05-18T05:00:23;27.50;;;12.05;;
12412;SDS011;13877;18.896;-99.222;2023-05-18T05:02:50;28.27;;;13.07;;
12412;SDS011;13877;18.896;-99.222;2023-05-18T05:05:17;25.38;;;13.45;;
12412;SDS011;13877;18.896;-99.222;2023-05-18T05:07:45;27.23;;;12.77;;
12412;SDS011;13877;18.896;-99.222;2023-05-18T05:10:12;23.25;;;11.73;;
12412;SDS011;13877;18.896;-99.222;2023-05-18T05:12:39;24.05;;;11.45;;
12412;SDS011;13877;18.896;-99.222;2023-05-18T05:15:07;21.33;;;12.40;;
12412;SDS011;13877;18.896;-99.222;2023-05-18T05:17:34;22.77;;;11.52;;
12412;SDS011;13877;18.896;-99.222;2023-05-18T05:20:06;21.10;;;11.23;;
12412;SDS011;13877;18.896;-99.222;2023-05-18T05:22:37;21.60;;;11.73;;
12412;SDS011;13877;18.896;-99.222;2023-05-18T05:25:08;19.23;;;10.57;;
12412;SDS011;13877;18.896;-99.222;2023-05-18T05:27:35;22.45;;;10.98;;
12412;SDS011;13877;18.896;-99.222;2023-05-18T05:30:02;17.05;;;10.82;;
12412;SDS011;13877;18.896;-99.222;2023-05-18T05:32:32;19.23;;;10.80;;
12412;SDS011;13877;18.896;-99.222;2023-05-18T05:35:01;20.33;;;11.18;;
12412;SDS011;13877;18.896;-99.222;2023-05-18T05:37:29;18.15;;;10.70;;
12412;SDS011;13877;18.896;-99.222;2023-05-18T05:39:57;19.77;;;10.52;;
12412;SDS011;13877;18.896;-99.222;2023-05-18T05:42:28;22.90;;;9.82;;
12412;SDS011;13877;18.896;-99.222;2023-05-18T05:44:55;18.98;;;10.70;;
12412;SDS011;13877;18.896;-99.222;2023-05-18T05:47:24;17.30;;;10.35;;
12412;SDS011;13877;18.896;-99.222;2023-05-18T05:49:52;20.98;;;10.73;;
12412;SDS011;13877;18.896;-99.222;2023-05-18T05:52:19;20.13;;;11.57;;
12412;SDS011;13877;18.896;-99.222;2023-05-18T05:54:46;17.95;;;10.85;;
12412;SDS011;13877;18.896;-99.222;2023-05-18T05:57:14;17.58;;;11.65;;
12412;SDS011;13877;18.896;-99.222;2023-05-18T05:59:44;19.65;;;11.98;;
12412;SDS011;13877;18.896;-99.222;2023-05-18T06:02:11;17.38;;;10.73;;
12412;SDS011;13877;18.896;-99.222;2023-05-18T06:04:38;15.63;;;10.55;;
12412;SDS011;13877;18.896;-99.222;2023-05-18T06:07:06;17.77;;;9.65;;
12412;SDS011;13877;18.896;-99.222;2023-05-18T06:09:32;20.55;;;10.80;;
12412;SDS011;13877;18.896;-99.222;2023-05-18T06:11:59;24.52;;;12.48;;
12412;SDS011;13877;18.896;-99.222;2023-05-18T06:14:27;21.30;;;13.60;;
12412;SDS011;13877;18.896;-99.222;2023-05-18T06:16:55;26.10;;;13.55;;
12412;SDS011;13877;18.896;-99.222;2023-05-18T06:19:23;21.42;;;12.65;;
12412;SDS011;13877;18.896;-99.222;2023-05-18T06:21:51;21.38;;;12.38;;
12412;SDS011;13877;18.896;-99.222;2023-05-18T06:24:18;18.63;;;11.63;;
12412;SDS011;13877;18.896;-99.222;2023-05-18T06:27:10;18.13;;;11.52;;
12412;SDS011;13877;18.896;-99.222;2023-05-18T06:30:00;18.17;;;10.68;;
12412;SDS011;13877;18.896;-99.222;2023-05-18T06:32:48;22.48;;;9.93;;
12412;SDS011;13877;18.896;-99.222;2023-05-18T06:35:16;18.90;;;10.52;;
12412;SDS011;13877;18.896;-99.222;2023-05-18T06:37:42;17.60;;;9.95;;
12412;SDS011;13877;18.896;-99.222;2023-05-18T06:40:09;19.88;;;9.80;;
12412;SDS011;13877;18.896;-99.222;2023-05-18T06:42:39;15.25;;;9.82;;
12412;SDS011;13877;18.896;-99.222;2023-05-18T06:45:31;21.55;;;10.63;;
12412;SDS011;13877;18.896;-99.222;2023-05-18T06:48:08;21.15;;;10.57;;
12412;SDS011;13877;18.896;-99.222;2023-05-18T06:50:35;20.05;;;10.68;;
12412;SDS011;13877;18.896;-99.222;2023-05-18T06:53:03;18.35;;;10.23;;
12412;SDS011;13877;18.896;-99.222;2023-05-18T06:55:30;17.33;;;9.50;;
12412;SDS011;13877;18.896;-99.222;2023-05-18T06:57:57;17.30;;;10.15;;
12412;SDS011;13877;18.896;-99.222;2023-05-18T07:00:24;28.15;;;10.68;;
12412;SDS011;13877;18.896;-99.222;2023-05-18T07:02:51;16.92;;;10.48;;
12412;SDS011;13877;18.896;-99.222;2023-05-18T07:05:18;17.75;;;10.15;;
12412;SDS011;13877;18.896;-99.222;2023-05-18T07:07:45;24.55;;;12.40;;
12412;SDS011;13877;18.896;-99.222;2023-05-18T07:10:12;19.50;;;11.20;;
12412;SDS011;13877;18.896;-99.222;2023-05-18T07:12:39;16.75;;;10.38;;
12412;SDS011;13877;18.896;-99.222;2023-05-18T07:15:09;19.27;;;10.05;;
12412;SDS011;13877;18.896;-99.222;2023-05-18T07:17:36;17.30;;;10.13;;
12412;SDS011;13877;18.896;-99.222;2023-05-18T07:20:04;19.92;;;9.30;;
12412;SDS011;13877;18.896;-99.222;2023-05-18T07:22:32;17.58;;;9.48;;
12412;SDS011;13877;18.896;-99.222;2023-05-18T07:25:00;12.90;;;9.10;;
12412;SDS011;13877;18.896;-99.222;2023-05-18T07:27:27;19.00;;;10.35;;
12412;SDS011;13877;18.896;-99.222;2023-05-18T07:29:54;21.20;;;9.00;;
12412;SDS011;13877;18.896;-99.222;2023-05-18T07:32:21;21.85;;;9.55;;
12412;SDS011;13877;18.896;-99.222;2023-05-18T07:34:48;20.73;;;8.98;;
12412;SDS011;13877;18.896;-99.222;2023-05-18T07:37:14;16.92;;;9.88;;
12412;SDS011;13877;18.896;-99.222;2023-05-18T07:39:42;14.40;;;9.10;;
12412;SDS011;13877;18.896;-99.222;2023-05-18T07:42:08;18.35;;;9.00;;
12412;SDS011;13877;18.896;-99.222;2023-05-18T07:44:36;17.85;;;9.52;;
12412;SDS011;13877;18.896;-99.222;2023-05-18T07:47:02;21.02;;;10.13;;
12412;SDS011;13877;18.896;-99.222;2023-05-18T07:49:30;19.00;;;10.00;;
12412;SDS011;13877;18.896;-99.222;2023-05-18T07:51:56;19.90;;;9.93;;
12412;SDS011;13877;18.896;-99.222;2023-05-18T07:54:24;22.17;;;10.10;;
12412;SDS011;13877;18.896;-99.222;2023-05-18T07:56:51;20.52;;;10.32;;
12412;SDS011;13877;18.896;-99.222;2023-05-18T07:59:18;15.95;;;9.18;;
12412;SDS011;13877;18.896;-99.222;2023-05-18T08:01:45;16.92;;;9.43;;
12412;SDS011;13877;18.896;-99.222;2023-05-18T08:04:13;16.50;;;9.68;;
12412;SDS011;13877;18.896;-99.222;2023-05-18T08:06:40;15.38;;;9.43;;
12412;SDS011;13877;18.896;-99.222;2023-05-18T08:09:07;20.27;;;10.50;;
12412;SDS011;13877;18.896;-99.222;2023-05-18T08:11:34;20.35;;;10.18;;
12412;SDS011;13877;18.896;-99.222;2023-05-18T08:14:01;19.70;;;10.02;;
12412;SDS011;13877;18.896;-99.222;2023-05-18T08:16:28;16.67;;;9.18;;
12412;SDS011;13877;18.896;-99.222;2023-05-18T08:18:55;25.23;;;11.93;;
12412;SDS011;13877;18.896;-99.222;2023-05-18T08:21:24;18.75;;;10.45;;
12412;SDS011;13877;18.896;-99.222;2023-05-18T08:23:53;19.45;;;10.55;;
12412;SDS011;13877;18.896;-99.222;2023-05-18T08:26:20;19.73;;;11.00;;
12412;SDS011;13877;18.896;-99.222;2023-05-18T08:28:47;26.77;;;12.15;;
12412;SDS011;13877;18.896;-99.222;2023-05-18T08:31:18;25.58;;;11.15;;
12412;SDS011;13877;18.896;-99.222;2023-05-18T08:33:46;24.45;;;11.25;;
12412;SDS011;13877;18.896;-99.222;2023-05-18T08:36:13;20.67;;;12.38;;
12412;SDS011;13877;18.896;-99.222;2023-05-18T08:38:40;28.63;;;15.73;;
12412;SDS011;13877;18.896;-99.222;2023-05-18T08:41:11;28.00;;;15.95;;
12412;SDS011;13877;18.896;-99.222;2023-05-18T08:44:02;28.70;;;16.08;;
12412;SDS011;13877;18.896;-99.222;2023-05-18T08:46:39;27.88;;;14.80;;
12412;SDS011;13877;18.896;-99.222;2023-05-18T08:49:08;29.63;;;15.02;;
12412;SDS011;13877;18.896;-99.222;2023-05-18T08:51:36;32.13;;;16.63;;
12412;SDS011;13877;18.896;-99.222;2023-05-18T08:54:03;27.45;;;15.65;;
12412;SDS011;13877;18.896;-99.222;2023-05-18T08:56:33;30.43;;;15.00;;
12412;SDS011;13877;18.896;-99.222;2023-05-18T08:59:02;24.73;;;14.13;;
12412;SDS011;13877;18.896;-99.222;2023-05-18T09:01:33;30.73;;;15.40;;
12412;SDS011;13877;18.896;-99.222;2023-05-18T09:04:00;24.40;;;14.77;;
12412;SDS011;13877;18.896;-99.222;2023-05-18T09:06:28;27.33;;;15.77;;
12412;SDS011;13877;18.896;-99.222;2023-05-18T09:08:55;29.75;;;17.33;;
12412;SDS011;13877;18.896;-99.222;2023-05-18T09:11:24;41.42;;;20.33;;
12412;SDS011;13877;18.896;-99.222;2023-05-18T09:13:53;43.50;;;22.55;;
12412;SDS011;13877;18.896;-99.222;2023-05-18T09:16:20;39.13;;;21.52;;
12412;SDS011;13877;18.896;-99.222;2023-05-18T09:18:47;38.65;;;20.05;;
12412;SDS011;13877;18.896;-99.222;2023-05-18T09:21:15;36.55;;;19.38;;
12412;SDS011;13877;18.896;-99.222;2023-05-18T09:23:42;35.40;;;19.55;;
12412;SDS011;13877;18.896;-99.222;2023-05-18T09:26:09;30.27;;;18.52;;
12412;SDS011;13877;18.896;-99.222;2023-05-18T09:28:39;28.42;;;15.98;;
12412;SDS011;13877;18.896;-99.222;2023-05-18T09:31:08;30.27;;;15.93;;
12412;SDS011;13877;18.896;-99.222;2023-05-18T09:33:42;32.40;;;17.10;;
12412;SDS011;13877;18.896;-99.222;2023-05-18T09:36:10;32.05;;;17.77;;
12412;SDS011;13877;18.896;-99.222;2023-05-18T09:38:41;33.28;;;18.00;;
12412;SDS011;13877;18.896;-99.222;2023-05-18T09:41:14;33.15;;;17.73;;
12412;SDS011;13877;18.896;-99.222;2023-05-18T09:43:51;30.67;;;17.33;;
12412;SDS011;13877;18.896;-99.222;2023-05-18T09:46:19;31.52;;;19.38;;
12412;SDS011;13877;18.896;-99.222;2023-05-18T09:48:51;32.10;;;18.15;;
12412;SDS011;13877;18.896;-99.222;2023-05-18T09:51:20;29.05;;;17.45;;
12412;SDS011;13877;18.896;-99.222;2023-05-18T09:53:57;31.02;;;18.08;;
12412;SDS011;13877;18.896;-99.222;2023-05-18T09:56:24;32.92;;;18.92;;
12412;SDS011;13877;18.896;-99.222;2023-05-18T09:58:52;27.77;;;17.20;;
12412;SDS011;13877;18.896;-99.222;2023-05-18T10:01:20;28.90;;;16.95;;
12412;SDS011;13877;18.896;-99.222;2023-05-18T10:03:46;28.90;;;17.45;;
12412;SDS011;13877;18.896;-99.222;2023-05-18T10:06:14;32.45;;;16.23;;
12412;SDS011;13877;18.896;-99.222;2023-05-18T10:08:46;28.77;;;16.30;;
12412;SDS011;13877;18.896;-99.222;2023-05-18T10:11:15;29.38;;;15.60;;
12412;SDS011;13877;18.896;-99.222;2023-05-18T10:16:11;29.67;;;16.65;;
12412;SDS011;13877;18.896;-99.222;2023-05-18T10:18:40;35.63;;;17.63;;
12412;SDS011;13877;18.896;-99.222;2023-05-18T10:21:07;29.75;;;16.58;;
12412;SDS011;13877;18.896;-99.222;2023-05-18T10:23:37;29.00;;;16.13;;
12412;SDS011;13877;18.896;-99.222;2023-05-18T10:26:06;29.27;;;17.08;;
12412;SDS011;13877;18.896;-99.222;2023-05-18T10:28:41;28.70;;;14.73;;
12412;SDS011;13877;18.896;-99.222;2023-05-18T10:31:17;28.17;;;16.17;;
12412;SDS011;13877;18.896;-99.222;2023-05-18T10:33:46;29.92;;;18.33;;
12412;SDS011;13877;18.896;-99.222;2023-05-18T10:36:15;35.83;;;18.02;;
12412;SDS011;13877;18.896;-99.222;2023-05-18T10:38:43;37.78;;;19.30;;
12412;SDS011;13877;18.896;-99.222;2023-05-18T10:41:11;38.38;;;18.38;;
12412;SDS011;13877;18.896;-99.222;2023-05-18T10:43:40;31.13;;;19.05;;
12412;SDS011;13877;18.896;-99.222;2023-05-18T10:46:07;32.72;;;17.95;;
12412;SDS011;13877;18.896;-99.222;2023-05-18T10:48:37;33.15;;;16.23;;
12412;SDS011;13877;18.896;-99.222;2023-05-18T10:51:07;33.92;;;17.48;;
12412;SDS011;13877;18.896;-99.222;2023-05-18T10:53:34;30.00;;;16.45;;
12412;SDS011;13877;18.896;-99.222;2023-05-18T10:56:02;33.47;;;17.48;;
12412;SDS011;13877;18.896;-99.222;2023-05-18T10:58:29;34.05;;;18.35;;
12412;SDS011;13877;18.896;-99.222;2023-05-18T11:00:57;29.33;;;17.75;;
12412;SDS011;13877;18.896;-99.222;2023-05-18T11:03:26;34.05;;;18.08;;
12412;SDS011;13877;18.896;-99.222;2023-05-18T11:06:07;30.90;;;17.88;;
12412;SDS011;13877;18.896;-99.222;2023-05-18T11:08:46;39.28;;;18.63;;
12412;SDS011;13877;18.896;-99.222;2023-05-18T11:11:14;29.38;;;16.35;;
12412;SDS011;13877;18.896;-99.222;2023-05-18T11:13:47;30.77;;;18.15;;
12412;SDS011;13877;18.896;-99.222;2023-05-18T11:16:15;32.97;;;18.55;;
12412;SDS011;13877;18.896;-99.222;2023-05-18T11:18:47;37.15;;;20.05;;
12412;SDS011;13877;18.896;-99.222;2023-05-18T11:21:48;34.45;;;18.45;;
12412;SDS011;13877;18.896;-99.222;2023-05-18T11:24:50;31.73;;;18.60;;
12412;SDS011;13877;18.896;-99.222;2023-05-18T11:27:13;36.45;;;20.27;;
12412;SDS011;13877;18.896;-99.222;2023-05-18T11:32:25;35.45;;;19.08;;
12412;SDS011;13877;18.896;-99.222;2023-05-18T11:34:54;31.10;;;18.15;;
12412;SDS011;13877;18.896;-99.222;2023-05-18T11:40:49;33.40;;;17.85;;
12412;SDS011;13877;18.896;-99.222;2023-05-18T11:43:21;30.27;;;17.92;;
12412;SDS011;13877;18.896;-99.222;2023-05-18T11:45:52;41.78;;;18.48;;
12412;SDS011;13877;18.896;-99.222;2023-05-18T11:50:47;27.52;;;16.60;;
12412;SDS011;13877;18.896;-99.222;2023-05-18T11:53:17;28.13;;;18.02;;
12412;SDS011;13877;18.896;-99.222;2023-05-18T11:55:44;36.88;;;19.20;;
12412;SDS011;13877;18.896;-99.222;2023-05-18T11:58:11;33.85;;;19.45;;
12412;SDS011;13877;18.896;-99.222;2023-05-18T12:00:43;36.92;;;20.10;;
12412;SDS011;13877;18.896;-99.222;2023-05-18T12:03:14;43.47;;;19.15;;
12412;SDS011;13877;18.896;-99.222;2023-05-18T12:05:42;34.80;;;19.90;;
12412;SDS011;13877;18.896;-99.222;2023-05-18T12:08:17;31.73;;;18.85;;
12412;SDS011;13877;18.896;-99.222;2023-05-18T12:10:44;28.73;;;17.42;;
12412;SDS011;13877;18.896;-99.222;2023-05-18T12:13:12;27.02;;;16.35;;
12412;SDS011;13877;18.896;-99.222;2023-05-18T12:15:42;31.77;;;16.70;;
12412;SDS011;13877;18.896;-99.222;2023-05-18T12:18:09;35.38;;;18.58;;
12412;SDS011;13877;18.896;-99.222;2023-05-18T12:20:40;28.48;;;15.13;;
12412;SDS011;13877;18.896;-99.222;2023-05-18T12:23:07;27.60;;;16.02;;
12412;SDS011;13877;18.896;-99.222;2023-05-18T12:25:34;29.90;;;17.10;;
12412;SDS011;13877;18.896;-99.222;2023-05-18T12:28:01;29.55;;;16.52;;
12412;SDS011;13877;18.896;-99.222;2023-05-18T12:30:29;31.55;;;16.20;;
12412;SDS011;13877;18.896;-99.222;2023-05-18T12:33:03;25.77;;;15.90;;
12412;SDS011;13877;18.896;-99.222;2023-05-18T12:35:31;31.77;;;17.83;;
12412;SDS011;13877;18.896;-99.222;2023-05-18T12:37:58;34.78;;;16.20;;
12412;SDS011;13877;18.896;-99.222;2023-05-18T12:40:26;28.58;;;15.65;;
12412;SDS011;13877;18.896;-99.222;2023-05-18T12:43:02;30.67;;;16.52;;
12412;SDS011;13877;18.896;-99.222;2023-05-18T12:45:29;33.00;;;15.27;;
12412;SDS011;13877;18.896;-99.222;2023-05-18T12:50:47;28.80;;;16.52;;
12412;SDS011;13877;18.896;-99.222;2023-05-18T12:53:17;31.63;;;18.05;;
12412;SDS011;13877;18.896;-99.222;2023-05-18T12:55:56;35.05;;;17.05;;
12412;SDS011;13877;18.896;-99.222;2023-05-18T12:58:24;34.38;;;16.10;;
12412;SDS011;13877;18.896;-99.222;2023-05-18T13:00:51;33.30;;;16.15;;
12412;SDS011;13877;18.896;-99.222;2023-05-18T13:03:18;40.67;;;16.45;;
12412;SDS011;13877;18.896;-99.222;2023-05-18T13:06:00;30.00;;;16.30;;
12412;SDS011;13877;18.896;-99.222;2023-05-18T13:08:31;28.33;;;15.82;;
12412;SDS011;13877;18.896;-99.222;2023-05-18T13:11:01;29.92;;;15.98;;
12412;SDS011;13877;18.896;-99.222;2023-05-18T13:13:29;29.95;;;16.80;;
12412;SDS011;13877;18.896;-99.222;2023-05-18T13:15:56;27.98;;;16.08;;
12412;SDS011;13877;18.896;-99.222;2023-05-18T13:18:26;27.35;;;16.42;;
12412;SDS011;13877;18.896;-99.222;2023-05-18T13:20:54;25.63;;;14.85;;
12412;SDS011;13877;18.896;-99.222;2023-05-18T13:23:25;26.85;;;14.80;;
12412;SDS011;13877;18.896;-99.222;2023-05-18T13:25:53;24.80;;;14.70;;
12412;SDS011;13877;18.896;-99.222;2023-05-18T13:28:20;27.77;;;15.32;;
12412;SDS011;13877;18.896;-99.222;2023-05-18T13:30:47;30.52;;;15.02;;
12412;SDS011;13877;18.896;-99.222;2023-05-18T13:33:15;25.23;;;14.80;;
12412;SDS011;13877;18.896;-99.222;2023-05-18T13:35:46;26.98;;;14.05;;
12412;SDS011;13877;18.896;-99.222;2023-05-18T13:38:14;26.70;;;14.68;;
12412;SDS011;13877;18.896;-99.222;2023-05-18T13:40:41;25.95;;;13.55;;
12412;SDS011;13877;18.896;-99.222;2023-05-18T13:43:08;27.88;;;14.45;;
12412;SDS011;13877;18.896;-99.222;2023-05-18T13:45:35;25.85;;;14.35;;
12412;SDS011;13877;18.896;-99.222;2023-05-18T13:48:02;27.50;;;14.70;;
12412;SDS011;13877;18.896;-99.222;2023-05-18T13:50:32;26.02;;;14.60;;
12412;SDS011;13877;18.896;-99.222;2023-05-18T13:52:58;24.70;;;14.75;;
12412;SDS011;13877;18.896;-99.222;2023-05-18T13:55:26;27.42;;;14.50;;
12412;SDS011;13877;18.896;-99.222;2023-05-18T13:57:53;25.88;;;15.10;;
12412;SDS011;13877;18.896;-99.222;2023-05-18T14:00:21;27.30;;;14.85;;
12412;SDS011;13877;18.896;-99.222;2023-05-18T14:02:47;28.70;;;13.95;;
12412;SDS011;13877;18.896;-99.222;2023-05-18T14:05:14;25.73;;;14.32;;
12412;SDS011;13877;18.896;-99.222;2023-05-18T14:07:41;22.88;;;14.13;;
12412;SDS011;13877;18.896;-99.222;2023-05-18T14:10:10;27.13;;;14.02;;
12412;SDS011;13877;18.896;-99.222;2023-05-18T14:12:37;26.45;;;14.48;;
12412;SDS011;13877;18.896;-99.222;2023-05-18T14:15:07;28.90;;;14.80;;
12412;SDS011;13877;18.896;-99.222;2023-05-18T14:17:34;24.88;;;14.80;;
12412;SDS011;13877;18.896;-99.222;2023-05-18T14:20:01;31.60;;;15.30;;
12412;SDS011;13877;18.896;-99.222;2023-05-18T14:22:32;31.30;;;15.27;;
12412;SDS011;13877;18.896;-99.222;2023-05-18T14:24:59;30.63;;;14.45;;
12412;SDS011;13877;18.896;-99.222;2023-05-18T14:27:27;26.80;;;15.13;;
12412;SDS011;13877;18.896;-99.222;2023-05-18T14:29:54;26.00;;;14.13;;
12412;SDS011;13877;18.896;-99.222;2023-05-18T14:32:21;40.88;;;15.00;;
12412;SDS011;13877;18.896;-99.222;2023-05-18T14:34:48;42.60;;;15.60;;